WIDD/BTH METAR and TAF weather

Enter ICAO airport designator
Station Type Date Time Source
WIDD METAR 2022/01/26 13:30 UTC NOAA

WIDD 261330Z 01008KT 9999 FEW014 27/23 Q1011 NOSIG


Station Type Date Time Source
WIDD Decoded METAR 2022/01/26 13:30 UTC NOAA

Station name not available
Jan 26, 2022 - 08:30 AM EST / 2022.01.26 1330 UTC
Wind: from the N (010 degrees) at 9 MPH (8 KT):0
Visibility: greater than 7 mile(s):0
Sky conditions: mostly clear
Temperature: 80 F (27 C)
Dew Point: 73 F (23 C)
Relative Humidity: 78%
Pressure (altimeter): 29.85 in. Hg (1011 hPa)
ob: WIDD 261330Z 01008KT 9999 FEW014 27/23 Q1011 NOSIG
cycle: 13

Station Type Date Time Source
WIDD TAF 2022/01/26 12:00 UTC NOAA

TAF WIDD 261100Z 2612/2712 05010KT 9000 FEW014=

Example: see airport list